sensor_id;sensor_type;location;lat;lon;timestamp;noise_LAeq;noise_LA_min;noise_LA_max;noise_LA01;noise_LA95
68279;Laerm;55108;51.790;10.960;2022-10-16T00:00:30;31.16;25.79;37.95;;
68279;Laerm;55108;51.790;10.960;2022-10-16T00:02:56;54.67;25.84;73.37;;
68279;Laerm;55108;51.790;10.960;2022-10-16T00:05:21;54.06;26.03;71.54;;
68279;Laerm;55108;51.790;10.960;2022-10-16T00:07:46;28.18;25.87;48.62;;
68279;Laerm;55108;51.790;10.960;2022-10-16T00:10:11;34.26;25.73;46.43;;
68279;Laerm;55108;51.790;10.960;2022-10-16T00:12:36;26.97;25.50;29.43;;
68279;Laerm;55108;51.790;10.960;2022-10-16T00:15:02;33.69;25.85;47.70;;
68279;Laerm;55108;51.790;10.960;2022-10-16T00:17:27;53.18;26.62;70.22;;
68279;Laerm;55108;51.790;10.960;2022-10-16T00:19:52;58.94;25.81;79.97;;
68279;Laerm;55108;51.790;10.960;2022-10-16T00:22:17;28.91;25.93;41.60;;
68279;Laerm;55108;51.790;10.960;2022-10-16T00:24:42;27.72;25.84;40.13;;
68279;Laerm;55108;51.790;10.960;2022-10-16T00:27:08;27.44;25.79;47.35;;
68279;Laerm;55108;51.790;10.960;2022-10-16T00:29:33;32.04;25.99;50.63;;
68279;Laerm;55108;51.790;10.960;2022-10-16T00:31:58;28.55;26.05;41.15;;
68279;Laerm;55108;51.790;10.960;2022-10-16T00:34:23;27.25;25.79;44.04;;
68279;Laerm;55108;51.790;10.960;2022-10-16T00:36:48;56.56;25.89;75.90;;
68279;Laerm;55108;51.790;10.960;2022-10-16T00:39:13;30.71;25.83;45.73;;
68279;Laerm;55108;51.790;10.960;2022-10-16T00:41:39;27.42;25.71;42.44;;
68279;Laerm;55108;51.790;10.960;2022-10-16T00:44:41;27.02;25.71;36.65;;
68279;Laerm;55108;51.790;10.960;2022-10-16T00:46:49;28.73;25.46;39.31;;
68279;Laerm;55108;51.790;10.960;2022-10-16T00:49:15;29.11;26.15;38.81;;
68279;Laerm;55108;51.790;10.960;2022-10-16T00:51:48;32.26;25.93;54.12;;
68279;Laerm;55108;51.790;10.960;2022-10-16T00:54:15;28.11;25.74;49.63;;
68279;Laerm;55108;51.790;10.960;2022-10-16T00:56:41;27.46;26.03;34.05;;
68279;Laerm;55108;51.790;10.960;2022-10-16T00:59:09;53.67;26.07;70.39;;
68279;Laerm;55108;51.790;10.960;2022-10-16T01:01:37;43.09;26.01;57.82;;
68279;Laerm;55108;51.790;10.960;2022-10-16T01:04:02;27.33;25.58;38.06;;
68279;Laerm;55108;51.790;10.960;2022-10-16T01:09:12;27.12;25.59;30.98;;
68279;Laerm;55108;51.790;10.960;2022-10-16T01:17:04;28.64;25.96;34.02;;
68279;Laerm;55108;51.790;10.960;2022-10-16T01:21:56;35.92;26.70;51.58;;
68279;Laerm;55108;51.790;10.960;2022-10-16T01:27:01;54.97;26.01;73.98;;
68279;Laerm;55108;51.790;10.960;2022-10-16T01:29:34;31.11;26.43;48.16;;
68279;Laerm;55108;51.790;10.960;2022-10-16T01:32:05;57.23;26.00;75.78;;
68279;Laerm;55108;51.790;10.960;2022-10-16T01:34:46;27.43;25.89;31.51;;
68279;Laerm;55108;51.790;10.960;2022-10-16T01:37:14;28.10;25.82;36.30;;
68279;Laerm;55108;51.790;10.960;2022-10-16T01:39:41;27.29;25.58;35.55;;
68279;Laerm;55108;51.790;10.960;2022-10-16T01:42:27;27.20;25.81;43.24;;
68279;Laerm;55108;51.790;10.960;2022-10-16T01:44:53;28.14;25.86;40.52;;
68279;Laerm;55108;51.790;10.960;2022-10-16T01:47:22;28.52;25.97;35.56;;
68279;Laerm;55108;51.790;10.960;2022-10-16T01:49:48;54.43;26.32;71.01;;
68279;Laerm;55108;51.790;10.960;2022-10-16T01:52:15;57.05;26.09;74.92;;
68279;Laerm;55108;51.790;10.960;2022-10-16T01:54:43;36.81;26.20;55.37;;
68279;Laerm;55108;51.790;10.960;2022-10-16T01:57:10;30.07;25.66;41.54;;
68279;Laerm;55108;51.790;10.960;2022-10-16T01:59:40;28.19;26.07;43.29;;
68279;Laerm;55108;51.790;10.960;2022-10-16T02:02:07;27.82;25.82;40.62;;
68279;Laerm;55108;51.790;10.960;2022-10-16T02:04:39;29.80;26.01;53.75;;
68279;Laerm;55108;51.790;10.960;2022-10-16T02:07:05;29.57;26.28;35.83;;
68279;Laerm;55108;51.790;10.960;2022-10-16T02:09:34;27.84;25.89;38.42;;
68279;Laerm;55108;51.790;10.960;2022-10-16T02:12:01;53.29;26.39;72.45;;
68279;Laerm;55108;51.790;10.960;2022-10-16T02:14:29;32.47;26.04;43.60;;
68279;Laerm;55108;51.790;10.960;2022-10-16T02:16:55;55.20;26.20;71.50;;
68279;Laerm;55108;51.790;10.960;2022-10-16T02:19:20;29.54;25.64;37.43;;
68279;Laerm;55108;51.790;10.960;2022-10-16T02:22:02;26.92;25.73;29.12;;
68279;Laerm;55108;51.790;10.960;2022-10-16T02:24:38;27.44;25.98;33.97;;
68279;Laerm;55108;51.790;10.960;2022-10-16T02:27:10;27.19;25.68;30.84;;
68279;Laerm;55108;51.790;10.960;2022-10-16T02:29:38;29.45;26.13;40.72;;
68279;Laerm;55108;51.790;10.960;2022-10-16T02:32:04;29.79;26.38;37.20;;
68279;Laerm;55108;51.790;10.960;2022-10-16T02:34:31;30.55;26.13;40.93;;
68279;Laerm;55108;51.790;10.960;2022-10-16T02:36:57;55.36;26.49;72.99;;
68279;Laerm;55108;51.790;10.960;2022-10-16T02:39:23;28.90;26.21;34.76;;
68279;Laerm;55108;51.790;10.960;2022-10-16T02:41:48;30.43;25.70;42.00;;
68279;Laerm;55108;51.790;10.960;2022-10-16T02:44:14;56.20;26.01;74.48;;
68279;Laerm;55108;51.790;10.960;2022-10-16T02:46:39;40.12;26.26;54.70;;
68279;Laerm;55108;51.790;10.960;2022-10-16T02:49:04;30.31;26.19;42.48;;
68279;Laerm;55108;51.790;10.960;2022-10-16T02:51:29;27.63;25.94;34.21;;
68279;Laerm;55108;51.790;10.960;2022-10-16T02:53:54;33.48;25.99;57.11;;
68279;Laerm;55108;51.790;10.960;2022-10-16T02:56:19;58.25;26.88;76.97;;
68279;Laerm;55108;51.790;10.960;2022-10-16T02:58:45;54.58;25.99;72.18;;
68279;Laerm;55108;51.790;10.960;2022-10-16T03:01:10;59.20;27.24;79.44;;
68279;Laerm;55108;51.790;10.960;2022-10-16T03:03:37;30.95;26.52;40.61;;
68279;Laerm;55108;51.790;10.960;2022-10-16T03:06:02;32.61;26.51;44.92;;
68279;Laerm;55108;51.790;10.960;2022-10-16T03:08:27;31.35;26.80;45.30;;
68279;Laerm;55108;51.790;10.960;2022-10-16T03:10:52;30.13;26.36;39.86;;
68279;Laerm;55108;51.790;10.960;2022-10-16T03:13:18;54.41;26.22;74.00;;
68279;Laerm;55108;51.790;10.960;2022-10-16T03:15:45;57.17;26.19;75.29;;
68279;Laerm;55108;51.790;10.960;2022-10-16T03:18:10;33.06;26.37;42.83;;
68279;Laerm;55108;51.790;10.960;2022-10-16T03:20:35;57.46;26.76;72.40;;
68279;Laerm;55108;51.790;10.960;2022-10-16T03:23:01;30.12;26.50;35.43;;
68279;Laerm;55108;51.790;10.960;2022-10-16T03:25:27;60.98;27.97;77.10;;
68279;Laerm;55108;51.790;10.960;2022-10-16T03:27:52;32.49;27.01;45.60;;
68279;Laerm;55108;51.790;10.960;2022-10-16T03:30:17;30.63;26.59;44.04;;
68279;Laerm;55108;51.790;10.960;2022-10-16T03:32:46;59.12;26.50;76.88;;
68279;Laerm;55108;51.790;10.960;2022-10-16T03:35:11;34.09;26.76;44.22;;
68279;Laerm;55108;51.790;10.960;2022-10-16T03:37:36;56.72;26.89;73.98;;
68279;Laerm;55108;51.790;10.960;2022-10-16T03:40:03;54.85;26.42;73.79;;
68279;Laerm;55108;51.790;10.960;2022-10-16T03:42:28;54.74;26.70;74.14;;
68279;Laerm;55108;51.790;10.960;2022-10-16T03:44:53;53.19;26.60;69.71;;
68279;Laerm;55108;51.790;10.960;2022-10-16T03:47:18;56.14;26.54;74.94;;
68279;Laerm;55108;51.790;10.960;2022-10-16T03:49:46;61.41;27.40;81.36;;
68279;Laerm;55108;51.790;10.960;2022-10-16T03:52:11;34.04;26.71;45.17;;
68279;Laerm;55108;51.790;10.960;2022-10-16T03:54:36;33.92;26.07;45.50;;
68279;Laerm;55108;51.790;10.960;2022-10-16T03:57:02;61.53;30.28;77.66;;
68279;Laerm;55108;51.790;10.960;2022-10-16T03:59:27;52.93;26.69;72.53;;
68279;Laerm;55108;51.790;10.960;2022-10-16T04:01:52;54.14;27.18;71.58;;
68279;Laerm;55108;51.790;10.960;2022-10-16T04:04:17;58.32;27.13;73.23;;
68279;Laerm;55108;51.790;10.960;2022-10-16T04:06:42;51.37;27.26;67.63;;
68279;Laerm;55108;51.790;10.960;2022-10-16T04:09:08;60.95;27.92;77.52;;
68279;Laerm;55108;51.790;10.960;2022-10-16T04:11:33;58.53;27.26;76.63;;
68279;Laerm;55108;51.790;10.960;2022-10-16T04:13:58;57.91;26.18;76.47;;
68279;Laerm;55108;51.790;10.960;2022-10-16T04:16:23;58.67;28.29;74.74;;
68279;Laerm;55108;51.790;10.960;2022-10-16T04:18:48;60.45;26.76;80.72;;
68279;Laerm;55108;51.790;10.960;2022-10-16T04:21:13;50.69;26.67;66.19;;
68279;Laerm;55108;51.790;10.960;2022-10-16T04:23:39;59.19;26.88;74.13;;
68279;Laerm;55108;51.790;10.960;2022-10-16T04:26:04;54.66;26.88;73.02;;
68279;Laerm;55108;51.790;10.960;2022-10-16T04:28:29;57.04;27.80;71.23;;
68279;Laerm;55108;51.790;10.960;2022-10-16T04:30:54;60.44;28.52;76.76;;
68279;Laerm;55108;51.790;10.960;2022-10-16T04:33:19;33.08;26.50;52.40;;
68279;Laerm;55108;51.790;10.960;2022-10-16T04:35:45;55.08;28.14;71.66;;
68279;Laerm;55108;51.790;10.960;2022-10-16T04:38:10;54.95;27.13;70.29;;
68279;Laerm;55108;51.790;10.960;2022-10-16T04:40:35;46.14;26.14;59.19;;
68279;Laerm;55108;51.790;10.960;2022-10-16T04:43:02;58.21;26.44;77.46;;
68279;Laerm;55108;51.790;10.960;2022-10-16T04:45:27;38.33;28.64;56.09;;
68279;Laerm;55108;51.790;10.960;2022-10-16T04:47:52;56.54;27.71;74.51;;
68279;Laerm;55108;51.790;10.960;2022-10-16T04:50:17;53.48;27.80;69.67;;
68279;Laerm;55108;51.790;10.960;2022-10-16T04:52:43;48.65;27.64;64.45;;
68279;Laerm;55108;51.790;10.960;2022-10-16T04:55:08;35.96;27.28;52.82;;
68279;Laerm;55108;51.790;10.960;2022-10-16T04:57:33;59.01;27.73;75.98;;
68279;Laerm;55108;51.790;10.960;2022-10-16T04:59:58;35.25;27.11;59.29;;
68279;Laerm;55108;51.790;10.960;2022-10-16T05:02:24;57.94;28.11;77.27;;
68279;Laerm;55108;51.790;10.960;2022-10-16T05:04:49;55.90;33.39;75.54;;
68279;Laerm;55108;51.790;10.960;2022-10-16T05:07:14;59.94;33.03;75.38;;
68279;Laerm;55108;51.790;10.960;2022-10-16T05:09:39;54.44;28.01;73.19;;
68279;Laerm;55108;51.790;10.960;2022-10-16T05:12:04;64.12;32.29;79.08;;
68279;Laerm;55108;51.790;10.960;2022-10-16T05:14:30;55.44;29.24;73.55;;
68279;Laerm;55108;51.790;10.960;2022-10-16T05:16:55;57.47;29.20;75.86;;
68279;Laerm;55108;51.790;10.960;2022-10-16T05:19:21;56.99;30.37;72.49;;
68279;Laerm;55108;51.790;10.960;2022-10-16T05:21:46;57.20;29.40;74.30;;
68279;Laerm;55108;51.790;10.960;2022-10-16T05:24:11;61.83;28.83;77.57;;
68279;Laerm;55108;51.790;10.960;2022-10-16T05:26:36;62.54;29.97;78.45;;
68279;Laerm;55108;51.790;10.960;2022-10-16T05:29:01;61.25;32.03;76.26;;
68279;Laerm;55108;51.790;10.960;2022-10-16T05:31:27;61.31;30.78;80.47;;
68279;Laerm;55108;51.790;10.960;2022-10-16T05:33:57;61.51;32.11;78.54;;
68279;Laerm;55108;51.790;10.960;2022-10-16T05:36:22;55.45;29.19;72.81;;
68279;Laerm;55108;51.790;10.960;2022-10-16T05:38:50;58.27;29.04;74.92;;
68279;Laerm;55108;51.790;10.960;2022-10-16T05:41:15;58.11;28.11;77.57;;
68279;Laerm;55108;51.790;10.960;2022-10-16T05:43:46;59.15;30.61;76.11;;
68279;Laerm;55108;51.790;10.960;2022-10-16T05:46:11;62.65;30.80;77.32;;
68279;Laerm;55108;51.790;10.960;2022-10-16T05:48:36;65.07;35.39;79.31;;
68279;Laerm;55108;51.790;10.960;2022-10-16T05:51:02;60.73;30.21;76.70;;
68279;Laerm;55108;51.790;10.960;2022-10-16T05:53:28;63.79;33.65;78.27;;
68279;Laerm;55108;51.790;10.960;2022-10-16T05:55:54;59.24;33.79;76.46;;
68279;Laerm;55108;51.790;10.960;2022-10-16T05:58:19;57.39;30.44;72.68;;
68279;Laerm;55108;51.790;10.960;2022-10-16T06:00:44;60.04;35.37;72.73;;
68279;Laerm;55108;51.790;10.960;2022-10-16T06:03:17;57.93;29.39;76.18;;
68279;Laerm;55108;51.790;10.960;2022-10-16T06:05:42;60.48;28.38;78.59;;
68279;Laerm;55108;51.790;10.960;2022-10-16T06:08:07;59.71;30.78;76.30;;
68279;Laerm;55108;51.790;10.960;2022-10-16T06:10:32;63.83;32.27;78.94;;
68279;Laerm;55108;51.790;10.960;2022-10-16T06:12:58;63.75;34.54;76.72;;
68279;Laerm;55108;51.790;10.960;2022-10-16T06:15:23;63.15;33.98;76.14;;
68279;Laerm;55108;51.790;10.960;2022-10-16T06:17:48;62.65;30.17;80.71;;
68279;Laerm;55108;51.790;10.960;2022-10-16T06:20:13;64.56;38.43;81.60;;
68279;Laerm;55108;51.790;10.960;2022-10-16T06:22:38;62.26;33.78;78.59;;
68279;Laerm;55108;51.790;10.960;2022-10-16T06:25:03;60.60;32.26;76.66;;
68279;Laerm;55108;51.790;10.960;2022-10-16T06:27:29;62.39;29.95;77.76;;
68279;Laerm;55108;51.790;10.960;2022-10-16T06:29:54;59.13;30.95;74.30;;
68279;Laerm;55108;51.790;10.960;2022-10-16T06:32:19;62.64;33.23;76.46;;
68279;Laerm;55108;51.790;10.960;2022-10-16T06:34:44;61.96;32.36;77.86;;
68279;Laerm;55108;51.790;10.960;2022-10-16T06:37:09;62.90;31.09;77.79;;
68279;Laerm;55108;51.790;10.960;2022-10-16T06:39:35;60.30;30.73;75.08;;
68279;Laerm;55108;51.790;10.960;2022-10-16T06:42:00;61.75;33.54;76.21;;
68279;Laerm;55108;51.790;10.960;2022-10-16T06:44:25;63.27;31.38;79.29;;
68279;Laerm;55108;51.790;10.960;2022-10-16T06:46:50;57.24;28.07;76.79;;
68279;Laerm;55108;51.790;10.960;2022-10-16T06:49:16;61.68;33.99;77.08;;
68279;Laerm;55108;51.790;10.960;2022-10-16T06:51:46;63.22;33.83;76.27;;
68279;Laerm;55108;51.790;10.960;2022-10-16T06:54:11;63.15;38.20;78.21;;
68279;Laerm;55108;51.790;10.960;2022-10-16T06:56:36;62.91;35.22;76.85;;
68279;Laerm;55108;51.790;10.960;2022-10-16T06:59:02;59.47;30.65;74.64;;
68279;Laerm;55108;51.790;10.960;2022-10-16T07:01:28;60.67;28.42;77.98;;
68279;Laerm;55108;51.790;10.960;2022-10-16T07:03:53;63.68;31.26;74.24;;
68279;Laerm;55108;51.790;10.960;2022-10-16T07:06:19;62.32;34.23;76.17;;
68279;Laerm;55108;51.790;10.960;2022-10-16T07:08:45;62.86;32.88;77.18;;
68279;Laerm;55108;51.790;10.960;2022-10-16T07:11:12;64.01;38.69;77.74;;
68279;Laerm;55108;51.790;10.960;2022-10-16T07:13:38;66.18;35.07;80.45;;
68279;Laerm;55108;51.790;10.960;2022-10-16T07:16:05;63.93;39.38;78.14;;
68279;Laerm;55108;51.790;10.960;2022-10-16T07:18:30;65.10;37.59;75.91;;
68279;Laerm;55108;51.790;10.960;2022-10-16T07:21:02;60.24;31.64;75.88;;
68279;Laerm;55108;51.790;10.960;2022-10-16T07:23:27;61.22;33.69;76.48;;
68279;Laerm;55108;51.790;10.960;2022-10-16T07:25:53;64.23;43.73;77.00;;
68279;Laerm;55108;51.790;10.960;2022-10-16T07:28:18;65.31;33.33;76.70;;
68279;Laerm;55108;51.790;10.960;2022-10-16T07:30:43;65.50;33.32;79.81;;
68279;Laerm;55108;51.790;10.960;2022-10-16T07:33:08;65.07;34.74;77.18;;
68279;Laerm;55108;51.790;10.960;2022-10-16T07:35:33;63.41;38.36;76.50;;
68279;Laerm;55108;51.790;10.960;2022-10-16T07:37:59;63.40;39.58;73.15;;
68279;Laerm;55108;51.790;10.960;2022-10-16T07:40:24;63.11;36.12;74.31;;
68279;Laerm;55108;51.790;10.960;2022-10-16T07:42:51;64.68;40.61;76.60;;
68279;Laerm;55108;51.790;10.960;2022-10-16T07:45:17;64.45;33.08;77.04;;
68279;Laerm;55108;51.790;10.960;2022-10-16T07:47:42;63.58;36.51;78.72;;
68279;Laerm;55108;51.790;10.960;2022-10-16T07:50:07;59.93;35.79;75.37;;
68279;Laerm;55108;51.790;10.960;2022-10-16T07:52:32;66.19;37.04;81.43;;
68279;Laerm;55108;51.790;10.960;2022-10-16T07:54:57;60.50;37.31;76.54;;
68279;Laerm;55108;51.790;10.960;2022-10-16T07:57:23;68.35;48.62;76.98;;
68279;Laerm;55108;51.790;10.960;2022-10-16T07:59:48;64.06;42.64;77.03;;
68279;Laerm;55108;51.790;10.960;2022-10-16T08:02:13;65.42;45.40;79.19;;
68279;Laerm;55108;51.790;10.960;2022-10-16T08:04:38;66.26;37.09;79.17;;
68279;Laerm;55108;51.790;10.960;2022-10-16T08:07:03;65.60;38.31;78.37;;
68279;Laerm;55108;51.790;10.960;2022-10-16T08:09:28;63.87;34.68;73.95;;
68279;Laerm;55108;51.790;10.960;2022-10-16T08:11:53;66.49;41.80;77.75;;
68279;Laerm;55108;51.790;10.960;2022-10-16T08:14:19;65.55;35.86;77.47;;
68279;Laerm;55108;51.790;10.960;2022-10-16T08:16:44;67.09;38.50;84.08;;
68279;Laerm;55108;51.790;10.960;2022-10-16T08:19:09;65.98;37.32;78.93;;
68279;Laerm;55108;51.790;10.960;2022-10-16T08:21:34;66.26;46.58;74.90;;
68279;Laerm;55108;51.790;10.960;2022-10-16T08:23:59;67.32;41.67;79.96;;
68279;Laerm;55108;51.790;10.960;2022-10-16T08:26:25;68.01;51.01;76.85;;
68279;Laerm;55108;51.790;10.960;2022-10-16T08:28:51;69.09;47.91;82.30;;
68279;Laerm;55108;51.790;10.960;2022-10-16T08:31:16;66.24;40.96;77.10;;
68279;Laerm;55108;51.790;10.960;2022-10-16T08:33:42;67.52;40.86;81.15;;
68279;Laerm;55108;51.790;10.960;2022-10-16T08:36:09;66.82;42.40;76.80;;
68279;Laerm;55108;51.790;10.960;2022-10-16T08:38:34;65.66;38.34;83.18;;
68279;Laerm;55108;51.790;10.960;2022-10-16T08:41:22;67.44;42.59;77.30;;
68279;Laerm;55108;51.790;10.960;2022-10-16T08:43:59;67.05;40.05;79.25;;
68279;Laerm;55108;51.790;10.960;2022-10-16T08:49:03;65.40;45.47;75.89;;
68279;Laerm;55108;51.790;10.960;2022-10-16T08:51:32;68.19;48.03;77.00;;
68279;Laerm;55108;51.790;10.960;2022-10-16T08:54:14;68.83;46.97;84.13;;
68279;Laerm;55108;51.790;10.960;2022-10-16T08:56:40;67.38;36.59;82.88;;
68279;Laerm;55108;51.790;10.960;2022-10-16T08:59:06;67.21;43.54;76.42;;
68279;Laerm;55108;51.790;10.960;2022-10-16T09:01:37;68.90;47.06;84.79;;
68279;Laerm;55108;51.790;10.960;2022-10-16T09:06:50;66.75;36.94;80.04;;
68279;Laerm;55108;51.790;10.960;2022-10-16T09:11:50;67.44;45.07;76.98;;
68279;Laerm;55108;51.790;10.960;2022-10-16T09:17:03;66.12;38.57;77.03;;
68279;Laerm;55108;51.790;10.960;2022-10-16T09:19:40;66.54;45.62;76.49;;
68279;Laerm;55108;51.790;10.960;2022-10-16T09:22:15;66.92;38.76;77.27;;
68279;Laerm;55108;51.790;10.960;2022-10-16T09:24:40;67.92;42.38;80.03;;
68279;Laerm;55108;51.790;10.960;2022-10-16T09:27:08;64.50;36.49;76.85;;
68279;Laerm;55108;51.790;10.960;2022-10-16T09:29:35;66.85;36.56;83.23;;
68279;Laerm;55108;51.790;10.960;2022-10-16T09:32:07;65.78;39.31;77.62;;
68279;Laerm;55108;51.790;10.960;2022-10-16T09:34:35;65.14;42.41;77.24;;
68279;Laerm;55108;51.790;10.960;2022-10-16T09:37:03;66.78;44.65;77.06;;
68279;Laerm;55108;51.790;10.960;2022-10-16T09:39:29;67.94;44.19;76.66;;
68279;Laerm;55108;51.790;10.960;2022-10-16T09:41:54;68.46;48.46;77.26;;
68279;Laerm;55108;51.790;10.960;2022-10-16T09:44:29;66.49;40.38;76.70;;
68279;Laerm;55108;51.790;10.960;2022-10-16T09:47:05;66.29;35.92;77.80;;
68279;Laerm;55108;51.790;10.960;2022-10-16T09:49:36;65.84;42.26;74.90;;
68279;Laerm;55108;51.790;10.960;2022-10-16T09:52:14;67.08;44.31;80.11;;
68279;Laerm;55108;51.790;10.960;2022-10-16T09:54:53;66.86;39.55;80.30;;
68279;Laerm;55108;51.790;10.960;2022-10-16T09:57:19;67.04;41.77;79.53;;
68279;Laerm;55108;51.790;10.960;2022-10-16T09:59:48;67.66;41.62;76.85;;
68279;Laerm;55108;51.790;10.960;2022-10-16T10:02:14;65.85;42.86;75.12;;
68279;Laerm;55108;51.790;10.960;2022-10-16T10:04:41;66.65;41.36;77.11;;
68279;Laerm;55108;51.790;10.960;2022-10-16T10:07:15;64.86;39.30;76.67;;
68279;Laerm;55108;51.790;10.960;2022-10-16T10:09:43;67.43;42.79;76.40;;
68279;Laerm;55108;51.790;10.960;2022-10-16T10:12:22;66.88;39.50;78.81;;
68279;Laerm;55108;51.790;10.960;2022-10-16T10:14:49;67.92;44.93;79.03;;
68279;Laerm;55108;51.790;10.960;2022-10-16T10:17:22;65.64;40.50;75.90;;
68279;Laerm;55108;51.790;10.960;2022-10-16T10:19:49;67.57;41.68;79.81;;
68279;Laerm;55108;51.790;10.960;2022-10-16T10:24:43;67.33;45.61;80.08;;
68279;Laerm;55108;51.790;10.960;2022-10-16T10:27:11;65.62;43.73;77.96;;
68279;Laerm;55108;51.790;10.960;2022-10-16T10:30:01;64.66;41.91;75.55;;
68279;Laerm;55108;51.790;10.960;2022-10-16T10:32:31;67.86;44.49;77.62;;
68279;Laerm;55108;51.790;10.960;2022-10-16T10:37:55;66.23;40.74;80.03;;
68279;Laerm;55108;51.790;10.960;2022-10-16T10:45:44;65.71;42.02;77.86;;
68279;Laerm;55108;51.790;10.960;2022-10-16T10:50:41;67.34;37.56;81.49;;
68279;Laerm;55108;51.790;10.960;2022-10-16T10:58:33;66.69;40.79;76.80;;
68279;Laerm;55108;51.790;10.960;2022-10-16T11:06:18;65.01;37.94;76.82;;
68279;Laerm;55108;51.790;10.960;2022-10-16T11:11:43;66.79;38.74;82.60;;
68279;Laerm;55108;51.790;10.960;2022-10-16T11:14:19;65.98;38.97;76.55;;
68279;Laerm;55108;51.790;10.960;2022-10-16T11:16:51;68.89;43.88;83.77;;
68279;Laerm;55108;51.790;10.960;2022-10-16T11:19:39;64.29;38.52;78.33;;
68279;Laerm;55108;51.790;10.960;2022-10-16T11:22:20;67.42;40.61;79.79;;
68279;Laerm;55108;51.790;10.960;2022-10-16T11:24:55;66.12;43.34;78.34;;
68279;Laerm;55108;51.790;10.960;2022-10-16T11:27:31;68.62;46.76;80.16;;
68279;Laerm;55108;51.790;10.960;2022-10-16T11:29:59;66.18;45.83;76.18;;
68279;Laerm;55108;51.790;10.960;2022-10-16T11:32:33;66.42;43.83;84.51;;
68279;Laerm;55108;51.790;10.960;2022-10-16T11:35:02;66.96;42.79;75.94;;
68279;Laerm;55108;51.790;10.960;2022-10-16T11:37:33;65.82;41.52;77.14;;
68279;Laerm;55108;51.790;10.960;2022-10-16T11:40:16;65.24;41.53;76.99;;
68279;Laerm;55108;51.790;10.960;2022-10-16T11:42:48;61.97;40.36;74.19;;
68279;Laerm;55108;51.790;10.960;2022-10-16T11:48:35;66.69;45.24;77.26;;
68279;Laerm;55108;51.790;10.960;2022-10-16T11:51:00;68.00;39.01;77.82;;
68279;Laerm;55108;51.790;10.960;2022-10-16T11:53:34;66.69;43.17;77.77;;
68279;Laerm;55108;51.790;10.960;2022-10-16T11:56:04;65.61;43.04;78.31;;
68279;Laerm;55108;51.790;10.960;2022-10-16T11:58:35;66.85;39.13;77.70;;
68279;Laerm;55108;51.790;10.960;2022-10-16T12:08:48;66.65;38.81;76.58;;
68279;Laerm;55108;51.790;10.960;2022-10-16T12:13:45;68.44;43.00;77.68;;
68279;Laerm;55108;51.790;10.960;2022-10-16T12:18:38;65.62;41.01;80.01;;
68279;Laerm;55108;51.790;10.960;2022-10-16T12:21:04;67.62;45.17;80.75;;
68279;Laerm;55108;51.790;10.960;2022-10-16T12:23:31;66.24;40.33;77.11;;
68279;Laerm;55108;51.790;10.960;2022-10-16T12:25:57;68.57;46.17;78.97;;
68279;Laerm;55108;51.790;10.960;2022-10-16T12:28:27;65.04;42.73;75.83;;
68279;Laerm;55108;51.790;10.960;2022-10-16T12:31:00;67.46;45.42;82.01;;
68279;Laerm;55108;51.790;10.960;2022-10-16T12:33:29;68.16;42.67;79.82;;
68279;Laerm;55108;51.790;10.960;2022-10-16T12:35:55;66.77;40.51;77.10;;
68279;Laerm;55108;51.790;10.960;2022-10-16T12:38:35;67.77;47.08;78.54;;
68279;Laerm;55108;51.790;10.960;2022-10-16T12:43:43;66.07;43.18;77.06;;
68279;Laerm;55108;51.790;10.960;2022-10-16T12:48:33;67.47;44.47;80.94;;
68279;Laerm;55108;51.790;10.960;2022-10-16T12:51:12;66.33;43.64;78.92;;
68279;Laerm;55108;51.790;10.960;2022-10-16T12:53:37;68.16;45.96;77.50;;
68279;Laerm;55108;51.790;10.960;2022-10-16T12:58:47;66.90;47.74;77.09;;
68279;Laerm;55108;51.790;10.960;2022-10-16T13:06:53;69.78;45.34;87.72;;
68279;Laerm;55108;51.790;10.960;2022-10-16T13:09:15;70.63;48.74;94.25;;
68279;Laerm;55108;51.790;10.960;2022-10-16T13:17:03;66.29;37.61;78.09;;
68279;Laerm;55108;51.790;10.960;2022-10-16T13:22:11;64.98;37.53;75.67;;
68279;Laerm;55108;51.790;10.960;2022-10-16T13:30:00;67.68;47.94;80.08;;
68279;Laerm;55108;51.790;10.960;2022-10-16T13:32:26;67.23;39.85;77.66;;
68279;Laerm;55108;51.790;10.960;2022-10-16T13:34:52;67.53;45.46;81.64;;
68279;Laerm;55108;51.790;10.960;2022-10-16T13:37:19;66.40;43.88;76.76;;
68279;Laerm;55108;51.790;10.960;2022-10-16T13:39:45;70.27;44.01;90.08;;
68279;Laerm;55108;51.790;10.960;2022-10-16T13:42:12;66.66;42.87;83.72;;
68279;Laerm;55108;51.790;10.960;2022-10-16T13:44:52;66.48;41.20;77.62;;
68279;Laerm;55108;51.790;10.960;2022-10-16T13:47:18;64.98;37.72;77.70;;
68279;Laerm;55108;51.790;10.960;2022-10-16T13:49:44;64.65;38.74;75.27;;
68279;Laerm;55108;51.790;10.960;2022-10-16T13:52:19;65.40;37.94;77.86;;
68279;Laerm;55108;51.790;10.960;2022-10-16T13:54:44;65.06;38.27;77.48;;
68279;Laerm;55108;51.790;10.960;2022-10-16T13:57:16;64.49;44.67;74.62;;
68279;Laerm;55108;51.790;10.960;2022-10-16T13:59:41;67.70;48.67;76.59;;
68279;Laerm;55108;51.790;10.960;2022-10-16T14:02:25;67.99;46.04;77.85;;
68279;Laerm;55108;51.790;10.960;2022-10-16T14:04:51;67.04;44.28;77.10;;
68279;Laerm;55108;51.790;10.960;2022-10-16T14:07:23;64.96;40.45;76.09;;
68279;Laerm;55108;51.790;10.960;2022-10-16T14:09:49;68.11;43.00;77.22;;
68279;Laerm;55108;51.790;10.960;2022-10-16T14:12:15;68.61;40.76;84.52;;
68279;Laerm;55108;51.790;10.960;2022-10-16T14:14:41;69.81;40.80;86.83;;
68279;Laerm;55108;51.790;10.960;2022-10-16T14:17:13;68.16;45.10;79.25;;
68279;Laerm;55108;51.790;10.960;2022-10-16T14:19:38;64.31;38.61;75.70;;
68279;Laerm;55108;51.790;10.960;2022-10-16T14:22:20;65.52;35.57;77.62;;
68279;Laerm;55108;51.790;10.960;2022-10-16T14:24:46;67.91;42.64;78.95;;
68279;Laerm;55108;51.790;10.960;2022-10-16T14:32:32;72.37;45.00;92.10;;
68279;Laerm;55108;51.790;10.960;2022-10-16T14:34:57;67.95;48.14;76.72;;
68279;Laerm;55108;51.790;10.960;2022-10-16T14:37:23;66.89;44.51;82.01;;
68279;Laerm;55108;51.790;10.960;2022-10-16T14:39:50;64.46;42.96;78.48;;
68279;Laerm;55108;51.790;10.960;2022-10-16T14:42:18;64.14;39.28;78.89;;
68279;Laerm;55108;51.790;10.960;2022-10-16T14:44:44;67.65;46.17;84.31;;
68279;Laerm;55108;51.790;10.960;2022-10-16T14:47:12;69.42;42.62;85.56;;
68279;Laerm;55108;51.790;10.960;2022-10-16T14:49:38;69.21;47.60;84.80;;
68279;Laerm;55108;51.790;10.960;2022-10-16T14:52:05;69.11;44.89;78.51;;
68279;Laerm;55108;51.790;10.960;2022-10-16T14:54:33;69.03;52.26;86.54;;
68279;Laerm;55108;51.790;10.960;2022-10-16T14:56:58;68.17;49.37;79.96;;
68279;Laerm;55108;51.790;10.960;2022-10-16T14:59:25;65.37;41.91;76.05;;
68279;Laerm;55108;51.790;10.960;2022-10-16T15:01:52;67.93;47.41;79.44;;
68279;Laerm;55108;51.790;10.960;2022-10-16T15:04:18;67.43;46.52;81.69;;
68279;Laerm;55108;51.790;10.960;2022-10-16T15:06:43;66.87;47.42;76.82;;
68279;Laerm;55108;51.790;10.960;2022-10-16T15:09:08;66.08;38.13;77.96;;
68279;Laerm;55108;51.790;10.960;2022-10-16T15:11:34;74.15;49.68;93.14;;